Time;durP1;ratioP1;P1;durP2;ratioP2;P2;SDS_P1;SDS_P2;PMS_P1;PMS_P2;Temp;Humidity;BMP_temperature;BMP_pressure;BME280_temperature;BME280_humidity;BME280_pressure;Samples;Min_cycle;Max_cycle;Signal;HPM_P1;HPM_P2
2023/11/25 00:00:16;;;;;;;3.55;1.38;;;15.30;64.00;;;;;;5053372;28;20837;-63
2023/11/25 00:02:42;;;;;;;2.08;1.23;;;15.20;63.80;;;;;;5053809;28;20179;-64
2023/11/25 00:05:08;;;;;;;2.75;1.30;;;15.20;63.80;;;;;;5053058;28;20187;-63
2023/11/25 00:07:33;;;;;;;1.65;1.10;;;15.20;64.60;;;;;;5053148;28;20234;-63
2023/11/25 00:09:59;;;;;;;3.53;1.27;;;15.20;63.80;;;;;;5053538;28;20186;-63
2023/11/25 00:12:25;;;;;;;4.00;1.50;;;15.20;63.80;;;;;;5052424;28;20186;-64
2023/11/25 00:14:50;;;;;;;3.33;1.10;;;15.20;63.80;;;;;;5053550;28;20294;-64
2023/11/25 00:17:17;;;;;;;3.65;1.40;;;15.20;63.90;;;;;;5053309;28;20175;-63
2023/11/25 00:19:43;;;;;;;2.53;1.15;;;15.20;63.90;;;;;;5052798;28;20210;-64
2023/11/25 00:22:08;;;;;;;3.97;1.30;;;15.20;63.90;;;;;;5053172;28;20512;-62
2023/11/25 00:24:35;;;;;;;2.17;1.38;;;15.10;63.80;;;;;;5052924;28;20179;-63
2023/11/25 00:27:01;;;;;;;2.63;1.00;;;15.10;63.90;;;;;;5052449;28;20171;-63
2023/11/25 00:29:28;;;;;;;2.75;1.00;;;15.10;63.90;;;;;;5052889;28;20232;-63
2023/11/25 00:31:54;;;;;;;2.85;1.35;;;15.10;63.90;;;;;;5053264;28;20214;-64
2023/11/25 00:34:22;;;;;;;3.13;1.33;;;15.10;63.80;;;;;;5051930;28;20211;-64
2023/11/25 00:36:47;;;;;;;4.07;1.33;;;15.00;63.80;;;;;;5053099;28;20251;-64
2023/11/25 00:39:15;;;;;;;2.08;1.00;;;15.10;63.80;;;;;;5052917;28;20175;-64
2023/11/25 00:41:40;;;;;;;3.17;1.40;;;15.00;63.70;;;;;;5052213;28;20182;-64
2023/11/25 00:44:07;;;;;;;2.17;1.23;;;15.10;63.80;;;;;;5053039;28;20175;-64
2023/11/25 00:46:33;;;;;;;2.83;1.17;;;15.00;63.60;;;;;;5052660;28;20232;-64
2023/11/25 00:48:59;;;;;;;2.75;1.40;;;15.00;63.70;;;;;;5052263;28;20262;-63
2023/11/25 00:51:24;;;;;;;1.63;1.10;;;15.00;63.70;;;;;;5052289;28;20980;-63
2023/11/25 00:53:50;;;;;;;2.72;1.42;;;15.00;63.70;;;;;;5051616;28;20313;-64
2023/11/25 00:56:15;;;;;;;3.85;1.40;;;15.00;63.70;;;;;;5052355;28;20695;-64
2023/11/25 00:58:41;;;;;;;2.63;1.30;;;15.00;63.70;;;;;;5052642;28;20265;-63
2023/11/25 01:01:07;;;;;;;1.13;1.00;;;15.00;63.60;;;;;;5052054;28;20724;-63
2023/11/25 01:03:33;;;;;;;3.00;1.13;;;14.90;64.50;;;;;;5052438;28;20540;-63
2023/11/25 01:05:59;;;;;;;2.08;1.10;;;15.00;63.70;;;;;;5052509;28;20171;-63
2023/11/25 01:08:28;;;;;;;1.65;1.00;;;14.90;63.60;;;;;;5051548;28;20183;-64
2023/11/25 01:10:53;;;;;;;4.00;1.40;;;14.90;63.60;;;;;;5052384;28;20258;-63
2023/11/25 01:13:19;;;;;;;3.15;1.35;;;14.90;63.60;;;;;;5052139;28;20263;-63
2023/11/25 01:15:44;;;;;;;2.33;1.15;;;14.90;63.60;;;;;;5051717;28;20600;-63
2023/11/25 01:18:10;;;;;;;1.60;1.30;;;14.90;63.50;;;;;;5052400;28;20171;-66
2023/11/25 01:20:36;;;;;;;2.90;1.25;;;14.90;63.60;;;;;;5051980;28;20201;-63
2023/11/25 01:23:01;;;;;;;2.53;1.48;;;14.90;63.60;;;;;;5051507;28;20174;-64
2023/11/25 01:25:27;;;;;;;3.70;1.40;;;14.90;63.60;;;;;;5050504;28;20175;-63
2023/11/25 01:27:58;;;;;;;2.83;1.48;;;14.90;63.60;;;;;;5052313;28;20551;-63
2023/11/25 01:30:24;;;;;;;2.95;1.35;;;14.80;63.50;;;;;;5051254;28;20228;-63
2023/11/25 01:32:49;;;;;;;3.72;1.77;;;14.80;63.60;;;;;;5051974;28;20175;-64
2023/11/25 01:35:15;;;;;;;4.45;1.35;;;14.90;63.60;;;;;;5051668;28;20222;-63
2023/11/25 01:37:41;;;;;;;2.55;1.45;;;14.80;63.60;;;;;;5051202;28;20180;-64
2023/11/25 01:40:10;;;;;;;3.35;1.20;;;14.80;63.50;;;;;;5051934;28;20305;-63
2023/11/25 01:42:36;;;;;;;2.38;1.15;;;14.80;63.50;;;;;;5051610;28;20210;-64
2023/11/25 01:45:02;;;;;;;2.70;1.30;;;14.80;63.50;;;;;;5051181;28;20221;-65
2023/11/25 01:47:28;;;;;;;3.38;1.50;;;14.80;63.50;;;;;;5051699;28;20680;-63
2023/11/25 01:49:53;;;;;;;2.92;1.40;;;14.80;63.50;;;;;;5050608;28;20231;-64
2023/11/25 01:52:19;;;;;;;2.72;1.25;;;14.80;63.50;;;;;;5050927;28;20167;-63
2023/11/25 01:54:44;;;;;;;2.92;1.60;;;14.80;63.50;;;;;;5051741;28;20612;-63
2023/11/25 01:57:10;;;;;;;3.67;1.23;;;14.80;63.50;;;;;;5051277;28;20268;-63
2023/11/25 01:59:35;;;;;;;3.00;1.50;;;14.80;63.50;;;;;;5051667;28;20322;-64
2023/11/25 02:02:03;;;;;;;2.85;1.45;;;14.80;63.50;;;;;;5051901;28;20187;-63
2023/11/25 02:04:28;;;;;;;2.88;1.20;;;14.80;63.50;;;;;;5050860;28;20628;-63
2023/11/25 02:06:54;;;;;;;4.22;1.55;;;14.70;63.40;;;;;;5054430;28;20649;-63
2023/11/25 02:09:23;;;;;;;2.90;1.27;;;14.70;63.50;;;;;;5055461;28;20642;-64
2023/11/25 02:11:59;;;;;;;4.28;1.23;;;14.70;63.50;;;;;;5055229;28;20181;-63
2023/11/25 02:14:25;;;;;;;5.63;1.88;;;14.70;63.50;;;;;;5055485;28;20233;-63
2023/11/25 02:16:51;;;;;;;5.25;1.90;;;14.70;63.50;;;;;;5055672;28;20256;-63
2023/11/25 02:19:21;;;;;;;4.78;1.55;;;14.70;63.50;;;;;;5053426;28;20247;-63
2023/11/25 02:21:46;;;;;;;3.28;1.40;;;14.70;63.50;;;;;;5055621;28;20171;-64
2023/11/25 02:24:12;;;;;;;4.40;2.08;;;14.70;63.50;;;;;;5055924;28;20179;-64
2023/11/25 02:26:38;;;;;;;5.05;1.90;;;14.70;63.50;;;;;;5054820;28;20179;-64
2023/11/25 02:29:05;;;;;;;5.03;1.75;;;14.70;63.60;;;;;;5055364;28;20186;-63
2023/11/25 02:31:31;;;;;;;3.05;1.33;;;14.70;63.60;;;;;;5055355;28;20664;-63
2023/11/25 02:33:57;;;;;;;5.68;1.80;;;14.70;63.50;;;;;;5054729;28;20209;-64
2023/11/25 02:36:23;;;;;;;2.85;1.50;;;14.70;63.60;;;;;;5054804;28;20179;-63
2023/11/25 02:38:49;;;;;;;3.63;1.70;;;14.70;63.50;;;;;;5055412;28;20598;-64
2023/11/25 02:41:14;;;;;;;3.30;1.40;;;14.70;63.60;;;;;;5054362;28;20266;-64
2023/11/25 02:43:40;;;;;;;2.95;1.50;;;14.60;63.40;;;;;;5055216;28;20539;-64
2023/11/25 02:46:06;;;;;;;4.90;1.73;;;14.60;63.40;;;;;;5055237;28;20199;-63
2023/11/25 02:48:32;;;;;;;3.90;1.58;;;14.60;64.00;;;;;;5054084;28;20203;-64
2023/11/25 02:50:57;;;;;;;3.45;1.50;;;14.60;63.50;;;;;;5054898;28;20318;-63
2023/11/25 02:53:23;;;;;;;2.38;1.25;;;14.60;63.50;;;;;;5054140;28;20713;-64
2023/11/25 02:55:49;;;;;;;3.85;1.52;;;14.60;63.40;;;;;;5055011;28;20183;-63
2023/11/25 02:58:15;;;;;;;4.25;1.55;;;14.60;64.40;;;;;;5054741;28;20168;-64
2023/11/25 03:00:43;;;;;;;4.32;1.90;;;14.60;63.50;;;;;;5054214;28;20237;-63
2023/11/25 03:03:12;;;;;;;6.72;2.05;;;14.60;63.50;;;;;;5054819;28;20175;-63
2023/11/25 03:05:38;;;;;;;5.53;1.67;;;14.60;63.60;;;;;;5054400;28;20313;-63
2023/11/25 03:08:05;;;;;;;5.00;1.80;;;14.60;63.50;;;;;;5054297;28;20191;-62
2023/11/25 03:10:31;;;;;;;4.47;1.70;;;14.60;63.50;;;;;;5054512;28;20178;-63
2023/11/25 03:12:56;;;;;;;3.90;1.30;;;14.50;63.60;;;;;;5054742;28;20179;-63
2023/11/25 03:15:22;;;;;;;2.25;1.08;;;14.60;63.60;;;;;;5053508;28;20215;-63
2023/11/25 03:17:47;;;;;;;3.80;1.73;;;14.50;63.60;;;;;;5054168;28;20270;-62
2023/11/25 03:20:13;;;;;;;3.47;1.58;;;14.50;63.50;;;;;;5054324;28;20261;-63
2023/11/25 03:22:39;;;;;;;3.00;1.60;;;14.50;63.60;;;;;;5053866;28;20171;-63
2023/11/25 03:25:05;;;;;;;3.20;1.55;;;14.50;63.60;;;;;;5054563;28;20175;-63
2023/11/25 03:27:31;;;;;;;3.08;1.50;;;14.50;63.60;;;;;;5054028;28;20179;-63
2023/11/25 03:29:57;;;;;;;5.75;1.83;;;14.50;63.60;;;;;;5053660;28;20206;-63
2023/11/25 03:32:25;;;;;;;3.92;1.55;;;14.50;63.60;;;;;;5053960;28;20262;-62
2023/11/25 03:34:51;;;;;;;4.47;1.48;;;14.50;63.60;;;;;;5053925;28;20689;-64
2023/11/25 03:37:17;;;;;;;4.38;1.73;;;14.50;63.60;;;;;;5052850;28;20179;-64
2023/11/25 03:39:42;;;;;;;4.13;1.70;;;14.50;63.60;;;;;;5054267;28;20763;-62
2023/11/25 03:42:08;;;;;;;5.10;1.67;;;14.40;63.60;;;;;;5054124;28;20975;-62
2023/11/25 03:44:34;;;;;;;4.20;1.77;;;14.50;63.60;;;;;;5053086;28;20232;-62
2023/11/25 03:47:00;;;;;;;3.67;1.65;;;14.50;63.60;;;;;;5053888;28;20183;-63
2023/11/25 03:49:26;;;;;;;4.65;1.77;;;14.50;63.60;;;;;;5053560;28;20185;-64
2023/11/25 03:51:51;;;;;;;2.85;1.25;;;14.40;63.70;;;;;;5053384;28;20176;-64
2023/11/25 03:54:17;;;;;;;3.75;1.33;;;14.50;63.60;;;;;;5053512;28;20286;-64
2023/11/25 03:56:45;;;;;;;2.55;1.75;;;14.40;63.60;;;;;;5053216;28;20575;-64
2023/11/25 03:59:11;;;;;;;3.60;1.23;;;14.40;63.60;;;;;;5053792;28;20258;-64
2023/11/25 04:01:36;;;;;;;3.60;1.67;;;14.40;63.60;;;;;;5053483;28;20258;-64
2023/11/25 04:04:03;;;;;;;5.80;2.03;;;14.40;63.70;;;;;;5053199;28;20171;-63
2023/11/25 04:06:32;;;;;;;3.58;1.60;;;14.40;63.60;;;;;;5053459;28;20537;-64
2023/11/25 04:08:57;;;;;;;5.00;1.65;;;14.40;63.60;;;;;;5053548;28;20681;-62
2023/11/25 04:11:23;;;;;;;3.47;1.45;;;14.40;63.60;;;;;;5052446;28;20258;-63
2023/11/25 04:13:48;;;;;;;3.97;1.52;;;14.40;63.50;;;;;;5053338;28;20294;-63
2023/11/25 04:16:14;;;;;;;3.33;1.55;;;14.40;63.60;;;;;;5053223;28;20254;-62
2023/11/25 04:18:41;;;;;;;5.45;1.45;;;14.40;63.60;;;;;;5052839;28;20262;-63
2023/11/25 04:21:07;;;;;;;4.57;1.58;;;14.40;63.50;;;;;;5053483;28;20175;-62
2023/11/25 04:23:32;;;;;;;4.05;1.67;;;14.40;63.60;;;;;;5053116;28;20202;-63
2023/11/25 04:25:58;;;;;;;4.55;1.60;;;14.40;63.60;;;;;;5052602;28;20545;-63
2023/11/25 04:28:23;;;;;;;3.70;1.80;;;14.30;63.50;;;;;;5052287;28;20175;-63
2023/11/25 04:30:49;;;;;;;3.10;1.33;;;14.40;63.60;;;;;;5053187;28;20507;-63
2023/11/25 04:33:14;;;;;;;3.58;1.88;;;14.30;64.30;;;;;;5052009;28;20536;-63
2023/11/25 04:35:40;;;;;;;4.03;1.55;;;14.30;63.50;;;;;;5053093;28;20203;-64
2023/11/25 04:38:07;;;;;;;3.65;1.60;;;14.30;63.50;;;;;;5052906;28;20539;-64
2023/11/25 04:40:32;;;;;;;3.17;1.65;;;14.30;63.50;;;;;;5052059;28;20187;-63
2023/11/25 04:42:58;;;;;;;3.25;1.60;;;14.30;63.60;;;;;;5052937;28;20198;-64
2023/11/25 04:45:25;;;;;;;3.92;1.63;;;14.30;63.70;;;;;;5052422;28;20191;-64
2023/11/25 04:47:50;;;;;;;3.20;1.40;;;14.30;63.70;;;;;;5052342;28;20183;-63
2023/11/25 04:50:17;;;;;;;3.28;1.70;;;14.30;63.60;;;;;;5052292;28;20313;-63
2023/11/25 04:52:43;;;;;;;4.55;2.00;;;14.30;63.60;;;;;;5052818;28;20175;-63
2023/11/25 04:55:08;;;;;;;3.53;1.50;;;14.30;63.70;;;;;;5051886;28;20305;-64
2023/11/25 04:57:35;;;;;;;2.15;1.23;;;14.30;63.70;;;;;;5052393;28;20265;-64
2023/11/25 05:00:03;;;;;;;3.72;1.65;;;14.30;63.70;;;;;;5051629;28;20182;-63
2023/11/25 05:02:28;;;;;;;4.65;2.00;;;14.30;63.70;;;;;;5052447;28;20555;-64
2023/11/25 05:04:56;;;;;;;5.13;1.83;;;14.30;63.80;;;;;;5052575;28;20178;-63
2023/11/25 05:07:22;;;;;;;3.95;1.70;;;14.30;63.80;;;;;;5051645;28;20171;-64
2023/11/25 05:09:48;;;;;;;3.03;1.30;;;14.20;63.60;;;;;;5052535;28;20552;-63
2023/11/25 05:12:14;;;;;;;2.95;1.63;;;14.30;63.70;;;;;;5052049;28;20171;-64
2023/11/25 05:14:41;;;;;;;5.65;1.73;;;14.20;63.70;;;;;;5051568;28;20615;-64
2023/11/25 05:17:06;;;;;;;2.45;1.30;;;14.20;63.60;;;;;;5052326;28;20692;-63
2023/11/25 05:19:32;;;;;;;2.90;1.50;;;14.20;63.70;;;;;;5051926;28;20245;-63
2023/11/25 05:21:57;;;;;;;3.95;1.75;;;14.20;63.70;;;;;;5051645;28;20225;-63
2023/11/25 05:24:26;;;;;;;3.28;1.58;;;14.20;63.70;;;;;;5051932;28;20173;-63
2023/11/25 05:26:53;;;;;;;3.85;1.90;;;14.20;63.60;;;;;;5052294;28;20179;-63
2023/11/25 05:29:18;;;;;;;1.33;1.23;;;14.20;63.60;;;;;;5051198;28;20254;-63
2023/11/25 05:31:44;;;;;;;4.45;1.50;;;14.20;63.60;;;;;;5052119;28;20710;-63
2023/11/25 05:34:12;;;;;;;2.05;1.23;;;14.20;63.70;;;;;;5052100;28;20302;-64
2023/11/25 05:36:38;;;;;;;5.28;1.40;;;14.20;63.70;;;;;;5051190;28;20186;-64
2023/11/25 05:39:06;;;;;;;2.53;1.33;;;14.20;63.70;;;;;;5052047;28;20185;-63
2023/11/25 05:41:35;;;;;;;3.05;1.35;;;14.20;63.70;;;;;;5051752;28;20195;-64
2023/11/25 05:44:04;;;;;;;4.38;1.30;;;14.10;63.60;;;;;;5051452;28;20179;-63
2023/11/25 05:46:30;;;;;;;4.13;1.50;;;14.10;63.70;;;;;;5051863;28;20176;-63
2023/11/25 05:48:55;;;;;;;5.85;1.52;;;14.10;63.60;;;;;;5051846;28;20175;-63
2023/11/25 05:51:21;;;;;;;4.45;1.63;;;14.10;63.60;;;;;;5050740;28;20227;-63
2023/11/25 05:53:46;;;;;;;4.30;1.58;;;14.10;63.60;;;;;;5051883;28;20226;-63
2023/11/25 05:56:12;;;;;;;3.83;1.65;;;14.10;63.60;;;;;;5051674;28;20834;-63
2023/11/25 05:58:38;;;;;;;3.20;2.08;;;14.10;63.60;;;;;;5051182;28;20181;-63
2023/11/25 06:01:04;;;;;;;3.90;1.40;;;14.20;63.60;;;;;;5051837;28;20179;-63
2023/11/25 06:03:30;;;;;;;1.73;0.93;;;14.10;63.60;;;;;;5049649;28;20179;-63
2023/11/25 06:05:55;;;;;;;5.05;1.40;;;14.10;63.60;;;;;;5051901;28;20167;-63
2023/11/25 06:08:21;;;;;;;3.03;1.58;;;14.10;63.60;;;;;;5051587;28;20179;-63
2023/11/25 06:10:48;;;;;;;2.75;1.33;;;14.10;63.40;;;;;;5051024;28;20622;-64
2023/11/25 06:13:15;;;;;;;2.65;1.40;;;14.20;63.40;;;;;;5051406;28;20717;-63
2023/11/25 06:15:40;;;;;;;1.90;0.90;;;14.30;63.40;;;;;;5051885;28;20241;-63
2023/11/25 06:18:07;;;;;;;2.63;1.30;;;14.40;63.20;;;;;;5050907;28;20622;-63
2023/11/25 06:20:34;;;;;;;3.22;1.40;;;14.60;63.00;;;;;;5051415;28;20172;-63
2023/11/25 06:23:00;;;;;;;3.58;1.40;;;14.80;62.60;;;;;;5051645;28;20186;-63
2023/11/25 06:25:26;;;;;;;3.30;1.13;;;15.00;62.20;;;;;;5050620;28;20290;-62
2023/11/25 06:27:52;;;;;;;1.65;0.95;;;15.20;62.10;;;;;;5051541;28;20267;-63
2023/11/25 06:30:17;;;;;;;2.35;1.13;;;15.40;61.60;;;;;;5051341;28;20233;-63
2023/11/25 06:32:43;;;;;;;3.20;1.25;;;15.70;60.70;;;;;;5050837;28;20335;-63
2023/11/25 06:35:09;;;;;;;2.13;1.10;;;16.00;59.90;;;;;;5051374;28;20219;-64
2023/11/25 06:37:39;;;;;;;2.45;1.38;;;16.20;59.60;;;;;;5051098;28;20254;-64
2023/11/25 06:40:06;;;;;;;2.40;1.23;;;16.30;59.20;;;;;;5050642;28;20590;-63
2023/11/25 06:42:32;;;;;;;1.80;1.00;;;16.40;59.20;;;;;;5051064;28;20709;-63
2023/11/25 06:44:58;;;;;;;2.72;1.05;;;16.40;59.00;;;;;;5051210;28;20198;-63
2023/11/25 06:47:23;;;;;;;2.78;1.20;;;16.50;59.10;;;;;;5050492;28;20700;-63
2023/11/25 06:49:50;;;;;;;2.47;1.17;;;16.40;59.10;;;;;;5050920;28;20223;-63
2023/11/25 06:52:16;;;;;;;2.72;1.30;;;16.50;59.10;;;;;;5052633;28;20229;-64
2023/11/25 06:54:42;;;;;;;1.67;1.00;;;16.50;59.20;;;;;;5054006;28;20210;-64
2023/11/25 06:57:08;;;;;;;1.10;1.00;;;16.50;59.20;;;;;;5055149;28;20175;-63
2023/11/25 06:59:33;;;;;;;2.40;1.02;;;16.50;59.20;;;;;;5054067;28;20186;-64
2023/11/25 07:01:59;;;;;;;2.13;1.15;;;16.50;59.30;;;;;;5054923;28;20634;-63
2023/11/25 07:04:24;;;;;;;2.40;0.88;;;16.50;59.30;;;;;;5054403;28;20216;-63
2023/11/25 07:06:50;;;;;;;1.77;1.02;;;16.60;59.30;;;;;;5053950;28;20262;-63
2023/11/25 07:09:16;;;;;;;2.40;1.20;;;16.70;59.20;;;;;;5054335;28;20269;-63
2023/11/25 07:11:41;;;;;;;2.72;1.33;;;16.80;58.90;;;;;;5054922;28;20254;-64
2023/11/25 07:14:08;;;;;;;1.48;0.95;;;17.00;58.90;;;;;;5053723;28;20244;-63
2023/11/25 07:16:33;;;;;;;1.73;1.10;;;17.10;58.50;;;;;;5054404;28;20190;-63
2023/11/25 07:19:00;;;;;;;1.63;1.00;;;17.20;58.30;;;;;;5054645;28;20171;-64
2023/11/25 07:21:26;;;;;;;1.67;0.63;;;17.40;58.10;;;;;;5053378;28;20206;-63
2023/11/25 07:23:52;;;;;;;1.00;0.77;;;17.50;57.90;;;;;;5054361;28;20646;-64
2023/11/25 07:26:18;;;;;;;1.63;0.85;;;17.50;57.70;;;;;;5054311;28;20251;-62
2023/11/25 07:28:43;;;;;;;1.70;0.85;;;17.60;57.70;;;;;;5053466;28;20706;-62
2023/11/25 07:31:11;;;;;;;1.45;1.00;;;17.70;57.60;;;;;;5054428;28;20259;-64
2023/11/25 07:33:37;;;;;;;1.55;0.90;;;17.70;57.60;;;;;;5053847;28;20175;-64
2023/11/25 07:36:03;;;;;;;1.38;0.90;;;17.70;57.60;;;;;;5053471;28;20182;-63
2023/11/25 07:38:28;;;;;;;2.08;1.08;;;17.60;57.70;;;;;;5053865;28;20195;-65
2023/11/25 07:40:54;;;;;;;1.75;0.80;;;17.50;57.80;;;;;;5054311;28;20510;-64
2023/11/25 07:43:20;;;;;;;1.17;0.60;;;17.50;57.90;;;;;;5053253;28;20175;-65
2023/11/25 07:45:45;;;;;;;1.17;0.80;;;17.50;58.10;;;;;;5054166;28;20254;-64
2023/11/25 07:48:11;;;;;;;2.05;1.00;;;17.50;58.10;;;;;;5054023;28;20209;-63
2023/11/25 07:50:45;;;;;;;1.77;0.90;;;17.50;58.20;;;;;;5052732;28;20697;-64
2023/11/25 07:53:14;;;;;;;1.88;0.88;;;17.50;58.20;;;;;;5053867;28;20187;-64
2023/11/25 07:55:39;;;;;;;2.47;0.90;;;17.30;58.30;;;;;;5053935;28;20226;-64
2023/11/25 07:58:05;;;;;;;0.80;0.70;;;17.30;58.40;;;;;;5053251;28;20171;-64
2023/11/25 08:00:31;;;;;;;1.73;0.80;;;17.30;58.50;;;;;;5053462;28;20187;-64
2023/11/25 08:02:58;;;;;;;1.33;0.82;;;17.30;58.60;;;;;;5052093;28;20211;-64
2023/11/25 08:05:24;;;;;;;1.35;0.73;;;17.30;58.70;;;;;;5052950;28;20250;-64
2023/11/25 08:07:53;;;;;;;1.73;0.80;;;17.20;58.70;;;;;;5053348;28;20733;-64
2023/11/25 08:10:19;;;;;;;1.27;0.77;;;17.20;58.70;;;;;;5052535;28;20666;-63
2023/11/25 08:12:45;;;;;;;1.75;0.80;;;17.20;58.80;;;;;;5053516;28;20177;-64
2023/11/25 08:15:14;;;;;;;1.35;1.02;;;17.20;58.90;;;;;;5053376;28;20322;-64
2023/11/25 08:17:43;;;;;;;1.35;0.63;;;17.20;58.80;;;;;;5052175;28;20211;-64
2023/11/25 08:20:12;;;;;;;1.70;0.75;;;17.20;58.90;;;;;;5053054;28;20179;-64
2023/11/25 08:22:38;;;;;;;1.65;0.70;;;17.20;58.90;;;;;;5053210;28;20221;-64
2023/11/25 08:25:07;;;;;;;2.20;0.80;;;17.20;59.30;;;;;;5052554;28;20175;-64
2023/11/25 08:27:33;;;;;;;2.05;0.73;;;17.20;58.90;;;;;;5053123;28;20175;-64
2023/11/25 08:29:59;;;;;;;0.57;0.55;;;17.30;59.00;;;;;;5053206;28;20324;-63
2023/11/25 08:32:24;;;;;;;1.35;0.80;;;17.30;58.90;;;;;;5052160;28;20686;-64
2023/11/25 08:34:50;;;;;;;1.58;0.93;;;17.20;58.90;;;;;;5052942;28;20750;-64
2023/11/25 08:37:16;;;;;;;0.70;0.55;;;17.30;59.10;;;;;;5052869;28;20175;-64
2023/11/25 08:39:42;;;;;;;1.83;0.82;;;17.30;59.00;;;;;;5052427;28;20206;-65
2023/11/25 08:42:09;;;;;;;1.10;0.60;;;17.20;59.10;;;;;;5053119;28;20183;-64
2023/11/25 08:44:35;;;;;;;0.88;0.50;;;17.20;59.10;;;;;;5052587;28;20594;-65
2023/11/25 08:47:01;;;;;;;0.88;0.82;;;17.20;59.20;;;;;;5052181;28;20228;-64
2023/11/25 08:49:27;;;;;;;1.63;0.70;;;17.30;59.10;;;;;;5052423;28;20273;-64
2023/11/25 08:51:53;;;;;;;0.88;0.77;;;17.30;59.00;;;;;;5052898;28;20297;-64
2023/11/25 08:54:18;;;;;;;1.50;0.95;;;17.40;58.90;;;;;;5051816;28;20210;-64
2023/11/25 08:56:45;;;;;;;0.77;0.60;;;17.40;59.00;;;;;;5052651;28;20168;-64
2023/11/25 08:59:12;;;;;;;1.17;0.68;;;17.40;58.90;;;;;;5052030;28;20308;-64
2023/11/25 09:01:42;;;;;;;2.28;0.93;;;17.50;58.80;;;;;;5052281;28;20183;-64
2023/11/25 09:04:08;;;;;;;0.77;0.77;;;17.40;58.90;;;;;;5052751;28;20550;-64
2023/11/25 09:06:36;;;;;;;1.58;0.80;;;17.30;58.90;;;;;;5051606;28;20689;-64
2023/11/25 09:09:07;;;;;;;0.68;0.50;;;17.30;59.20;;;;;;5052685;28;20182;-64
2023/11/25 09:11:33;;;;;;;3.47;0.75;;;17.20;59.30;;;;;;5052105;28;20597;-64
2023/11/25 09:13:58;;;;;;;0.80;0.60;;;17.20;59.40;;;;;;5051772;28;20312;-64
2023/11/25 09:16:25;;;;;;;1.05;0.63;;;17.20;59.60;;;;;;5051709;28;20193;-64
2023/11/25 09:18:51;;;;;;;1.45;0.90;;;17.10;59.60;;;;;;5052433;28;20175;-64
2023/11/25 09:21:16;;;;;;;1.25;0.60;;;17.00;59.80;;;;;;5051473;28;20171;-64
2023/11/25 09:23:43;;;;;;;0.93;0.57;;;17.00;59.90;;;;;;5052199;28;20650;-64
2023/11/25 09:26:08;;;;;;;1.05;0.70;;;16.90;60.20;;;;;;5052254;28;20249;-64
2023/11/25 09:28:34;;;;;;;0.95;0.50;;;16.80;60.40;;;;;;5051242;28;20179;-64
2023/11/25 09:31:00;;;;;;;1.80;0.80;;;16.80;60.40;;;;;;5052043;28;20637;-64
2023/11/25 09:33:26;;;;;;;1.10;0.85;;;16.70;60.80;;;;;;5052043;28;20178;-64
2023/11/25 09:35:52;;;;;;;1.05;0.60;;;16.60;61.10;;;;;;5051547;28;20297;-64
2023/11/25 09:38:17;;;;;;;1.25;0.80;;;16.50;61.40;;;;;;5051841;28;20211;-64
2023/11/25 09:40:43;;;;;;;1.30;0.68;;;16.40;61.60;;;;;;5052023;28;20206;-64
2023/11/25 09:43:09;;;;;;;1.50;0.80;;;16.40;61.70;;;;;;5051258;28;20182;-64
2023/11/25 09:45:35;;;;;;;1.17;0.68;;;16.40;61.80;;;;;;5051671;28;20210;-65
2023/11/25 09:48:01;;;;;;;1.90;0.70;;;16.40;61.60;;;;;;5050769;28;20646;-65
2023/11/25 09:50:27;;;;;;;1.15;0.70;;;16.40;61.60;;;;;;5050838;28;20242;-64
2023/11/25 09:52:53;;;;;;;1.55;0.85;;;16.50;61.50;;;;;;5052046;28;20594;-64
2023/11/25 09:55:19;;;;;;;2.05;0.95;;;16.50;61.40;;;;;;5051575;28;20754;-63
2023/11/25 09:57:45;;;;;;;1.42;0.88;;;16.50;61.40;;;;;;5051208;28;20171;-64
2023/11/25 10:00:12;;;;;;;1.08;0.65;;;16.50;61.40;;;;;;5050595;28;20642;-64
2023/11/25 10:02:38;;;;;;;1.30;0.70;;;16.40;61.50;;;;;;5049619;28;20764;-64
2023/11/25 10:05:05;;;;;;;0.98;0.85;;;16.30;61.60;;;;;;5050683;28;20206;-64
2023/11/25 10:07:30;;;;;;;1.23;0.70;;;16.30;61.70;;;;;;5050175;28;20171;-63
2023/11/25 10:09:56;;;;;;;1.13;0.50;;;16.30;61.70;;;;;;5051083;28;20541;-64
2023/11/25 10:12:23;;;;;;;0.82;0.60;;;16.40;61.80;;;;;;5051423;28;20175;-63
2023/11/25 10:14:49;;;;;;;1.17;0.80;;;16.40;61.70;;;;;;5051494;28;20744;-64
2023/11/25 10:17:23;;;;;;;1.45;0.80;;;16.40;61.70;;;;;;5049641;28;20180;-64
2023/11/25 10:19:49;;;;;;;1.45;0.85;;;16.30;61.80;;;;;;5051758;28;20224;-63
2023/11/25 10:22:16;;;;;;;1.00;0.60;;;16.30;61.90;;;;;;5051452;28;20175;-64
2023/11/25 10:24:47;;;;;;;0.77;0.68;;;16.30;62.00;;;;;;5051090;28;20185;-63
2023/11/25 10:27:12;;;;;;;1.15;0.70;;;16.20;62.00;;;;;;5052487;28;20186;-63
2023/11/25 10:29:40;;;;;;;2.10;0.90;;;16.20;62.10;;;;;;5055360;28;20175;-64
2023/11/25 10:32:07;;;;;;;2.60;0.90;;;16.20;62.10;;;;;;5053547;28;20246;-64
2023/11/25 10:34:34;;;;;;;0.70;0.63;;;16.20;62.20;;;;;;5055235;28;21138;-64
2023/11/25 10:37:01;;;;;;;1.10;0.95;;;16.20;62.10;;;;;;5054226;28;20180;-64
2023/11/25 10:39:26;;;;;;;1.52;0.60;;;16.20;62.10;;;;;;5054538;28;20197;-64
2023/11/25 10:41:52;;;;;;;0.90;0.80;;;16.20;62.10;;;;;;5053944;28;20651;-65
2023/11/25 10:44:18;;;;;;;1.33;0.80;;;16.20;61.90;;;;;;5055115;28;20175;-64
2023/11/25 10:46:44;;;;;;;1.48;0.70;;;16.30;61.90;;;;;;5054568;28;20167;-64
2023/11/25 10:49:09;;;;;;;1.95;0.80;;;16.30;62.70;;;;;;5055186;28;20174;-64
2023/11/25 10:51:38;;;;;;;1.40;0.75;;;16.30;61.90;;;;;;5054683;28;20249;-63
2023/11/25 10:54:08;;;;;;;2.53;0.98;;;16.30;61.90;;;;;;5054944;28;20285;-64
2023/11/25 10:56:35;;;;;;;1.05;0.50;;;16.20;62.00;;;;;;5053401;28;20298;-64
2023/11/25 10:59:00;;;;;;;1.52;0.98;;;16.20;62.10;;;;;;5054423;28;20226;-64
2023/11/25 11:01:32;;;;;;;1.63;0.68;;;16.20;62.20;;;;;;5054490;28;20588;-64
2023/11/25 11:03:59;;;;;;;1.95;0.60;;;16.20;62.40;;;;;;5053445;28;20221;-63
2023/11/25 11:06:29;;;;;;;1.27;0.80;;;16.10;62.30;;;;;;5053811;28;20686;-64
2023/11/25 11:08:55;;;;;;;1.60;0.82;;;16.20;62.40;;;;;;5054649;28;20175;-64
2023/11/25 11:11:20;;;;;;;1.42;0.75;;;16.20;62.40;;;;;;5054570;28;20182;-64
2023/11/25 11:13:55;;;;;;;1.20;0.70;;;16.20;62.50;;;;;;5053907;28;20266;-63
2023/11/25 11:16:34;;;;;;;2.65;0.88;;;16.10;62.50;;;;;;5053173;28;20178;-63
2023/11/25 11:19:00;;;;;;;3.38;1.05;;;16.10;62.50;;;;;;5053268;28;20675;-62
2023/11/25 11:21:28;;;;;;;2.95;0.82;;;16.10;62.50;;;;;;5052221;28;20251;-64
2023/11/25 11:23:53;;;;;;;2.45;1.05;;;16.10;63.30;;;;;;5053390;28;20171;-63
2023/11/25 11:26:39;;;;;;;1.17;0.98;;;16.10;62.50;;;;;;5054312;28;20174;-64
2023/11/25 11:29:18;;;;;;;2.60;1.17;;;16.10;62.40;;;;;;5053551;28;20703;-63
2023/11/25 11:32:02;;;;;;;1.63;0.70;;;16.20;62.40;;;;;;5053052;28;20202;-63
2023/11/25 11:34:32;;;;;;;1.20;0.82;;;16.30;62.20;;;;;;5053333;28;20247;-65
2023/11/25 11:36:58;;;;;;;1.65;0.82;;;16.30;62.00;;;;;;5054112;28;20176;-64
2023/11/25 11:39:51;;;;;;;1.77;0.50;;;16.30;62.10;;;;;;5053658;28;20525;-65
2023/11/25 11:42:26;;;;;;;1.92;0.75;;;16.20;62.10;;;;;;5052983;28;20179;-64
2023/11/25 11:44:56;;;;;;;0.90;0.77;;;16.20;62.20;;;;;;5054155;28;20203;-64
2023/11/25 11:47:24;;;;;;;1.77;0.73;;;16.20;62.20;;;;;;5053841;28;20249;-64
2023/11/25 11:49:50;;;;;;;2.17;0.75;;;16.20;62.20;;;;;;5051945;28;20222;-64
2023/11/25 11:52:16;;;;;;;1.38;0.80;;;16.20;62.50;;;;;;5052488;28;20186;-63
2023/11/25 11:54:41;;;;;;;2.00;1.00;;;16.20;62.50;;;;;;5052352;28;20210;-64
2023/11/25 11:57:17;;;;;;;2.58;0.90;;;16.20;62.50;;;;;;5053377;28;20179;-66
2023/11/25 12:00:06;;;;;;;1.33;0.60;;;16.20;62.40;;;;;;5054056;28;20654;-64
2023/11/25 12:02:32;;;;;;;2.83;1.00;;;16.20;62.20;;;;;;5052905;28;20621;-63
2023/11/25 12:04:58;;;;;;;2.40;1.23;;;16.30;62.20;;;;;;5053677;28;20705;-63
2023/11/25 12:07:24;;;;;;;1.45;0.82;;;16.30;62.00;;;;;;5053252;28;20539;-63
2023/11/25 12:09:50;;;;;;;3.13;1.05;;;16.30;61.90;;;;;;5052717;28;20175;-63
2023/11/25 12:12:16;;;;;;;2.20;0.90;;;16.20;62.00;;;;;;5053234;28;20175;-64
2023/11/25 12:14:41;;;;;;;2.78;0.90;;;16.20;62.30;;;;;;5053290;28;20278;-64
2023/11/25 12:17:08;;;;;;;2.08;1.05;;;16.10;62.50;;;;;;5052520;28;20252;-64
2023/11/25 12:19:34;;;;;;;2.88;1.30;;;16.00;62.50;;;;;;5052950;28;20639;-64
2023/11/25 12:21:59;;;;;;;1.33;0.82;;;16.00;62.70;;;;;;5052066;28;20633;-63
2023/11/25 12:24:25;;;;;;;1.98;1.10;;;16.00;62.70;;;;;;5051132;28;20280;-64
2023/11/25 12:26:52;;;;;;;3.15;0.73;;;16.00;62.70;;;;;;5053236;28;20182;-64
2023/11/25 12:29:22;;;;;;;2.50;1.02;;;16.00;62.70;;;;;;5051780;28;20258;-64
2023/11/25 12:31:48;;;;;;;1.02;0.80;;;16.00;62.80;;;;;;5052492;28;20183;-64
2023/11/25 12:34:14;;;;;;;0.95;0.70;;;16.00;62.80;;;;;;5052697;28;20209;-64
2023/11/25 12:36:40;;;;;;;0.80;0.70;;;15.90;62.70;;;;;;5053144;28;20183;-65
2023/11/25 12:39:12;;;;;;;1.50;0.75;;;16.00;62.80;;;;;;5052742;28;20182;-66
2023/11/25 12:41:43;;;;;;;2.78;0.80;;;16.00;62.80;;;;;;5053106;28;20190;-65
2023/11/25 12:44:12;;;;;;;1.67;0.80;;;15.90;62.70;;;;;;5052438;28;20179;-64